K0VXP-1 Weather Reports


Display with metric or nautical units.
time (UTC)temp
F
wind
direction
speed
MPH
gust
MPH
rain 1hr
in
rain 24hr
in
rain mn
in
humidity
%
barometer
mb
20240424211513 69 211 11.0 17.0 0.00 0.00 0.00 21 1018.1
20240424210013 70 210 9.0 25.0 0.00 0.00 0.00 23 1018.5
20240424204523 68 201 11.0 22.0 0.00 0.00 0.00 25 1018.4
20240424203016 68 233 10.0 23.0 0.00 0.00 0.00 24 1018.8
20240424201516 68 225 14.0 20.0 0.00 0.00 0.00 27 1019.1
20240424200016 68 214 11.0 18.0 0.00 0.00 0.00 27 1019.3
20240424194512 68 252 7.0 16.0 0.00 0.00 0.00 28 1019.6
20240424193013 68 250 8.0 15.0 0.00 0.00 0.00 26 1019.6
20240424191518 67 274 8.0 17.0 0.00 0.00 0.00 27 1019.7
20240424190020 67 221 12.0 19.0 0.00 0.00 0.00 28 1020.0
20240424184516 64 252 8.0 16.0 0.00 0.00 0.00 30 1020.1
20240424183013 62 263 5.0 11.0 0.00 0.00 0.00 30 1020.4
20240424181513 63 223 6.0 12.0 0.00 0.00 0.00 32 1020.7
20240424180015 64 313 3.0 15.0 0.00 0.00 0.00 30 1020.8
20240424174515 64 192 4.0 14.0 0.00 0.00 0.00 30 1020.9
20240424173017 63 264 5.0 15.0 0.00 0.00 0.00 29 1021.0
20240424171514 63 154 3.0 8.0 0.00 0.00 0.00 29 1021.3
20240424170014 62 262 3.0 12.0 0.00 0.00 0.00 30 1021.1
20240424164523 62 251 5.0 12.0 0.00 0.00 0.00 31 1021.2
20240424163019 61 227 7.0 12.0 0.00 0.00 0.00 32 1021.1
20240424161514 59 213 7.0 11.0 0.00 0.00 0.00 34 1021.2
20240424160012 59 217 8.0 13.0 0.00 0.00 0.00 34 1021.4
20240424154516 58 221 5.0 12.0 0.00 0.00 0.00 36 1021.2
20240424153018 57 213 3.0 7.0 0.00 0.00 0.00 38 1021.4
20240424151513 57 205 3.0 7.0 0.00 0.00 0.00 39 1021.4
20240424150021 55 241 0.0 5.0 0.00 0.00 0.00 42 1021.4
20240424144521 55 274 1.0 4.0 0.00 0.00 0.00 43 1021.4
20240424143012 55 0 1.0 4.0 0.00 0.00 0.00 44 1021.4
20240424141513 54 0 0.0 3.0 0.00 0.00 0.00 44 1021.3
20240424140016 51 36 2.0 4.0 0.00 0.00 0.00 50 1021.1
20240424134514 49 11 2.0 4.0 0.00 0.00 0.00 52 1021.1
20240424133015 48 31 2.0 4.0 0.00 0.00 0.00 53 1021.0
20240424131514 45 63 3.0 5.0 0.00 0.00 0.00 58 1020.7
20240424130020 43 69 3.0 5.0 0.00 0.00 0.00 60 1020.8
20240424124517 42 119 2.0 6.0 0.00 0.00 0.00 63 1020.7
20240424123013 41 103 3.0 6.0 0.00 0.00 0.00 63 1020.7
20240424121522 42 80 5.0 9.0 0.00 0.00 0.00 64 1020.6
20240424120023 43 63 7.0 11.0 0.00 0.00 0.00 66 1020.6
20240424114514 43 71 7.0 13.0 0.00 0.00 0.00 68 1020.5
20240424113013 43 38 7.0 10.0 0.00 0.00 0.00 69 1020.7
20240424111513 43 35 5.0 7.0 0.00 0.00 0.00 68 1020.8
20240424110015 43 71 4.0 8.0 0.00 0.00 0.00 67 1020.9
20240424104514 43 76 4.0 7.0 0.00 0.00 0.00 65 1020.7
20240424103013 43 86 4.0 9.0 0.00 0.00 0.00 64 1020.7
20240424101514 44 81 4.0 9.0 0.00 0.00 0.00 64 1020.7
20240424100014 44 57 4.0 10.0 0.00 0.00 0.00 63 1020.6
20240424094513 45 32 6.0 10.0 0.00 0.00 0.00 64 1020.3
20240424093015 43 54 5.0 8.0 0.00 0.00 0.00 63 1020.5
20240424091515 44 49 5.0 6.0 0.00 0.00 0.00 58 1020.4
20240424090014 45 30 4.0 10.0 0.00 0.00 0.00 61 1020.5
20240424084513 46 23 5.0 10.0 0.00 0.00 0.00 60 1020.4
20240424083013 47 51 5.0 10.0 0.00 0.00 0.00 60 1020.3
20240424081526 46 74 7.0 10.0 0.00 0.00 0.00 61 1020.1
20240424080036 46 53 6.0 10.0 0.00 0.00 0.00 61 1020.3
20240424074516 47 57 5.0 12.0 0.00 0.00 0.00 59 1020.3
20240424073013 47 83 5.0 8.0 0.00 0.00 0.00 59 1020.4
20240424071514 47 63 6.0 10.0 0.00 0.00 0.00 59 1020.4
20240424070021 47 69 7.0 10.0 0.00 0.00 0.00 59 1020.1
20240424064516 47 61 5.0 8.0 0.00 0.00 0.00 59 1020.2
20240424063013 47 55 5.0 10.0 0.00 0.00 0.00 57 1020.0
20240424061520 48 65 6.0 12.0 0.00 0.00 0.00 57 1019.9
20240424060017 48 17 6.0 11.0 0.00 0.00 0.00 55 1019.9
20240424054515 48 66 5.0 11.0 0.00 0.00 0.00 55 1019.9
20240424053015 48 58 4.0 8.0 0.00 0.00 0.00 49 1019.9
20240424051513 50 50 4.0 6.0 0.00 0.00 0.00 44 1019.8
20240424050013 52 32 5.0 8.0 0.00 0.00 0.00 43 1019.6
20240424044523 55 0 1.0 4.0 0.00 0.00 0.00 37 1019.8
20240424043025 56 250 4.0 10.0 0.00 0.00 0.00 37 1019.9
20240424041516 57 249 4.0 11.0 0.00 0.00 0.00 36 1019.8
20240424040015 56 314 3.0 10.0 0.00 0.00 0.00 37 1019.8
20240424034515 56 195 5.0 10.0 0.00 0.00 0.00 36 1020.1
20240424033019 55 201 5.0 8.0 0.00 0.00 0.00 38 1019.7
20240424031523 56 207 3.0 7.0 0.00 0.00 0.00 36 1019.5
20240424030014 57 225 5.0 11.0 0.00 0.00 0.00 35 1019.1
20240424024515 58 174 7.0 16.0 0.00 0.00 0.00 35 1018.9
20240424023015 58 172 6.0 12.0 0.00 0.00 0.00 35 1018.8
20240424021518 58 199 8.0 14.0 0.00 0.00 0.00 33 1018.4
20240424020023 59 223 8.0 13.0 0.00 0.00 0.00 34 1018.2
20240424014516 60 200 8.0 14.0 0.00 0.00 0.00 33 1017.9
20240424013013 61 230 7.0 15.0 0.00 0.00 0.00 32 1017.8
20240424011513 62 217 8.0 17.0 0.00 0.00 0.00 32 1017.7
20240424010019 61 200 10.0 15.0 0.00 0.00 0.00 33 1017.8
20240424004517 62 217 12.0 24.0 0.00 0.00 0.00 32 1017.8
20240424003013 62 223 8.0 18.0 0.00 0.00 0.00 31 1018.0
20240424001515 63 180 15.0 26.0 0.00 0.00 0.00 29 1017.8
20240424000014 65 221 12.0 18.0 0.00 0.00 0.00 28 1017.9
20240423234517 67 232 12.0 22.0 0.00 0.00 0.00 28 1017.9
20240423233015 64 227 12.0 20.0 0.00 0.00 0.00 29 1017.9
20240423231535 64 209 10.0 18.0 0.00 0.00 0.00 30 1017.9
20240423230012 64 188 12.0 25.0 0.00 0.00 0.00 28 1018.0
20240423224516 64 216 18.0 31.0 0.00 0.00 0.00 28 1017.9
20240423223016 65 233 12.0 23.0 0.00 0.00 0.00 28 1017.7
20240423221516 67 225 11.0 26.0 0.00 0.00 0.00 27 1017.6
20240423220017 68 235 9.0 17.0 0.00 0.00 0.00 28 1017.6
20240423214514 68 281 12.0 23.0 0.00 0.00 0.00 26 1017.9
20240423213015 65 242 9.0 15.0 0.00 0.00 0.00 30 1018.3